createdAt,value
2022-12-20T00:01:25.279Z,37.13
2022-12-20T00:03:54.163Z,39.83
2022-12-20T00:06:22.696Z,40.38
2022-12-20T00:08:54.700Z,40.20
2022-12-20T00:11:21.952Z,45.80
2022-12-20T00:13:49.562Z,42.22
2022-12-20T00:16:20.267Z,41.38
2022-12-20T00:18:51.109Z,41.50
2022-12-20T00:21:18.452Z,40.28
2022-12-20T00:23:45.738Z,38.50
2022-12-20T00:26:16.226Z,41.35
2022-12-20T00:28:45.689Z,38.95
2022-12-20T00:31:15.750Z,36.70
2022-12-20T00:36:13.665Z,32.83
2022-12-20T00:38:41.050Z,36.53
2022-12-20T00:41:14.469Z,37.67
2022-12-20T00:43:42.511Z,36.50
2022-12-20T00:46:12.539Z,35.88
2022-12-20T00:48:40.060Z,34.22
2022-12-20T00:51:12.195Z,37.22
2022-12-20T00:53:40.266Z,35.38
2022-12-20T00:56:08.545Z,38.08
2022-12-20T00:58:38.254Z,34.55
2022-12-20T01:01:07.291Z,35.80
2022-12-20T01:03:34.966Z,31.30
2022-12-20T01:06:03.619Z,31.42
2022-12-20T01:08:32.014Z,30.35
2022-12-20T01:11:01.519Z,29.35
2022-12-20T01:13:29.024Z,32.85
2022-12-20T01:15:56.781Z,33.92
2022-12-20T01:18:24.053Z,30.80
2022-12-20T01:21:01.678Z,33.08
2022-12-20T01:23:29.160Z,31.55
2022-12-20T01:25:59.088Z,32.53
2022-12-20T01:28:26.672Z,30.55
2022-12-20T01:30:54.246Z,31.60
2022-12-20T01:33:22.056Z,32.83
2022-12-20T01:35:59.857Z,30.65
2022-12-20T01:38:28.001Z,30.13
2022-12-20T01:40:57.717Z,30.20
2022-12-20T01:43:27.493Z,29.33
2022-12-20T01:45:54.887Z,30.13
2022-12-20T01:48:26.518Z,29.27
2022-12-20T01:50:54.153Z,29.35
2022-12-20T01:53:24.893Z,29.92
2022-12-20T01:55:52.787Z,29.63
2022-12-20T01:58:22.013Z,31.00
2022-12-20T02:00:49.660Z,30.20
2022-12-20T02:03:17.353Z,28.42
2022-12-20T02:05:47.225Z,28.15
2022-12-20T02:08:18.685Z,29.90
2022-12-20T02:11:20.386Z,27.92
2022-12-20T02:14:32.997Z,29.95
2022-12-20T02:17:14.820Z,29.73
2022-12-20T02:20:00.452Z,28.00
2022-12-20T02:22:52.851Z,28.35
2022-12-20T02:25:31.918Z,25.63
2022-12-20T02:28:19.161Z,25.75
2022-12-20T02:30:49.499Z,27.33
2022-12-20T02:33:18.442Z,28.48
2022-12-20T02:35:45.968Z,27.20
2022-12-20T02:38:34.309Z,26.17
2022-12-20T02:41:30.378Z,25.38
2022-12-20T02:44:25.658Z,25.80
2022-12-20T02:46:54.505Z,25.00
2022-12-20T02:51:56.523Z,25.05
2022-12-20T02:54:24.774Z,28.25
2022-12-20T02:57:09.443Z,25.70
2022-12-20T02:59:43.970Z,25.30
2022-12-20T03:02:13.047Z,23.45
2022-12-20T03:04:42.419Z,27.50
2022-12-20T03:07:13.867Z,25.47
2022-12-20T03:09:44.355Z,24.27
2022-12-20T03:12:14.415Z,26.35
2022-12-20T03:14:42.481Z,25.80
2022-12-20T03:17:11.402Z,24.13
2022-12-20T03:19:38.824Z,23.33
2022-12-20T03:22:06.418Z,24.80
2022-12-20T03:24:34.119Z,23.77
2022-12-20T03:27:02.329Z,24.17
2022-12-20T03:29:29.672Z,26.02
2022-12-20T03:31:57.064Z,24.67
2022-12-20T03:34:24.709Z,24.02
2022-12-20T03:36:51.993Z,23.23
2022-12-20T03:39:19.385Z,25.38
2022-12-20T03:41:46.769Z,25.05
2022-12-20T03:44:18.362Z,25.92
2022-12-20T03:46:45.721Z,22.33
2022-12-20T03:49:13.060Z,25.55
2022-12-20T03:51:46.089Z,24.27
2022-12-20T03:54:13.799Z,22.63
2022-12-20T03:57:04.324Z,21.58
2022-12-20T03:59:32.221Z,22.83
2022-12-20T04:02:00.833Z,22.58
2022-12-20T04:04:30.245Z,21.83
2022-12-20T04:06:57.607Z,24.52
2022-12-20T04:09:25.377Z,22.83
2022-12-20T04:11:58.413Z,23.52
2022-12-20T04:14:27.303Z,22.75
2022-12-20T04:16:54.724Z,21.98
2022-12-20T04:19:23.671Z,20.55
2022-12-20T04:21:51.173Z,22.02
2022-12-20T04:24:20.204Z,21.38
2022-12-20T04:27:09.094Z,22.00
2022-12-20T04:29:36.700Z,21.25
2022-12-20T04:32:06.030Z,21.30
2022-12-20T04:34:33.423Z,22.55
2022-12-20T04:37:00.731Z,22.13
2022-12-20T04:39:38.669Z,21.10
2022-12-20T04:42:24.983Z,20.90
2022-12-20T04:44:53.905Z,20.30
2022-12-20T04:47:24.955Z,21.00
2022-12-20T04:49:53.569Z,19.25
2022-12-20T04:52:45.526Z,20.48
2022-12-20T04:55:15.174Z,20.88
2022-12-20T04:57:42.519Z,20.05
2022-12-20T05:00:11.021Z,20.80
2022-12-20T05:02:43.336Z,21.08
2022-12-20T05:05:14.490Z,20.73
2022-12-20T05:07:47.923Z,20.20
2022-12-20T05:10:15.657Z,22.02
2022-12-20T05:12:44.924Z,19.40
2022-12-20T05:15:19.902Z,18.40
2022-12-20T05:17:47.354Z,18.05
2022-12-20T05:20:14.885Z,18.48
2022-12-20T05:25:48.979Z,17.77
2022-12-20T05:28:17.240Z,18.70
2022-12-20T05:30:45.810Z,17.50
2022-12-20T05:33:14.371Z,17.98
2022-12-20T05:35:44.800Z,17.70
2022-12-20T05:38:14.971Z,17.30
2022-12-20T05:40:43.448Z,18.48
2022-12-20T05:43:12.815Z,18.90
2022-12-20T05:45:48.421Z,18.33
2022-12-20T05:48:24.110Z,18.65
2022-12-20T05:50:53.159Z,18.05
2022-12-20T05:53:27.124Z,19.13
2022-12-20T05:55:58.578Z,18.98
2022-12-20T05:58:35.585Z,19.02
2022-12-20T06:01:08.266Z,18.60
2022-12-20T06:03:39.739Z,19.13
2022-12-20T06:06:14.647Z,18.90
2022-12-20T06:08:44.833Z,19.08
2022-12-20T06:11:17.769Z,19.02
2022-12-20T06:13:53.382Z,18.70
2022-12-20T06:16:23.329Z,18.80
2022-12-20T06:18:53.675Z,18.42
2022-12-20T06:21:21.902Z,19.90
2022-12-20T06:23:49.867Z,19.80
2022-12-20T06:26:19.315Z,18.38
2022-12-20T06:28:54.853Z,19.45
2022-12-20T06:31:26.397Z,18.98
2022-12-20T06:33:55.363Z,18.88
2022-12-20T06:36:25.499Z,18.90
2022-12-20T06:38:53.424Z,18.85
2022-12-20T06:41:21.185Z,18.00
2022-12-20T06:43:48.544Z,18.88
2022-12-20T06:46:15.863Z,19.15
2022-12-20T06:48:44.679Z,17.60
2022-12-20T06:51:13.051Z,17.45
2022-12-20T06:53:40.653Z,19.20
2022-12-20T06:56:08.002Z,18.70
2022-12-20T06:58:35.231Z,18.77
2022-12-20T07:01:02.835Z,17.33
2022-12-20T07:03:30.350Z,17.95
2022-12-20T07:05:57.654Z,19.48
2022-12-20T07:08:26.452Z,17.55
2022-12-20T07:10:54.773Z,18.05
2022-12-20T07:13:22.153Z,17.30
2022-12-20T07:15:49.584Z,18.83
2022-12-20T07:18:16.859Z,17.48
2022-12-20T07:20:44.209Z,18.38
2022-12-20T07:23:11.526Z,18.15
2022-12-20T07:25:38.871Z,18.73
2022-12-20T07:28:06.382Z,18.48
2022-12-20T07:30:33.581Z,16.50
2022-12-20T07:33:01.064Z,17.83
2022-12-20T07:35:28.520Z,18.17
2022-12-20T07:37:55.855Z,17.55
2022-12-20T07:40:23.103Z,18.63
2022-12-20T07:42:50.382Z,19.75
2022-12-20T07:45:19.199Z,18.33
2022-12-20T07:47:46.678Z,17.60
2022-12-20T07:50:14.438Z,17.15
2022-12-20T07:52:46.757Z,16.75
2022-12-20T07:55:15.481Z,17.60
2022-12-20T07:57:49.817Z,18.83
2022-12-20T08:00:19.242Z,17.45
2022-12-20T08:02:55.312Z,17.77
2022-12-20T08:05:23.465Z,18.95
2022-12-20T08:07:58.457Z,18.38
2022-12-20T08:10:27.905Z,17.35
2022-12-20T08:12:55.961Z,17.33
2022-12-20T08:15:23.875Z,17.98
2022-12-20T08:17:51.459Z,18.55
2022-12-20T08:20:18.768Z,18.70
2022-12-20T08:22:45.966Z,17.50
2022-12-20T08:25:13.583Z,18.05
2022-12-20T08:27:40.781Z,19.85
2022-12-20T08:30:10.834Z,17.77
2022-12-20T08:32:38.283Z,18.02
2022-12-20T08:35:06.477Z,17.25
2022-12-20T08:37:34.494Z,18.23
2022-12-20T08:40:02.394Z,18.30
2022-12-20T08:42:30.721Z,18.50
2022-12-20T08:44:58.028Z,17.83
2022-12-20T08:47:25.464Z,19.23
2022-12-20T08:49:52.778Z,19.42
2022-12-20T08:52:20.022Z,18.38
2022-12-20T08:54:47.546Z,18.27
2022-12-20T08:57:14.968Z,18.42
2022-12-20T08:59:42.415Z,17.90
2022-12-20T09:02:09.870Z,18.67
2022-12-20T09:04:37.313Z,17.45
2022-12-20T09:07:04.713Z,18.67
2022-12-20T09:09:32.134Z,18.38
2022-12-20T09:11:59.754Z,17.17
2022-12-20T09:14:27.012Z,17.77
2022-12-20T09:16:54.372Z,17.10
2022-12-20T09:19:22.050Z,17.52
2022-12-20T09:21:49.920Z,18.13
2022-12-20T09:24:18.003Z,17.55
2022-12-20T09:26:45.847Z,18.33
2022-12-20T09:29:25.017Z,17.58
2022-12-20T09:31:54.861Z,18.33
2022-12-20T09:34:21.981Z,18.40
2022-12-20T09:36:49.398Z,17.80
2022-12-20T09:39:16.822Z,18.48
2022-12-20T09:41:45.249Z,19.00
2022-12-20T09:44:34.884Z,19.05
2022-12-20T09:47:10.714Z,19.05
2022-12-20T09:49:42.295Z,17.02
2022-12-20T09:52:31.207Z,18.75
2022-12-20T09:55:13.985Z,17.92
2022-12-20T09:58:02.085Z,19.38
2022-12-20T10:00:30.932Z,17.70
2022-12-20T10:03:08.612Z,16.92
2022-12-20T10:05:49.947Z,18.38
2022-12-20T10:08:26.099Z,18.83
2022-12-20T10:11:09.079Z,18.48
2022-12-20T10:14:11.799Z,17.15
2022-12-20T10:16:58.867Z,18.67
2022-12-20T10:20:01.401Z,18.52
2022-12-20T10:22:50.174Z,19.48
2022-12-20T10:25:25.549Z,18.52
2022-12-20T10:27:57.365Z,19.00
2022-12-20T10:30:27.454Z,20.25
2022-12-20T10:35:31.857Z,17.88
2022-12-20T10:38:09.105Z,19.05
2022-12-20T10:41:19.546Z,17.90
2022-12-20T10:44:06.857Z,18.63
2022-12-20T10:46:47.939Z,17.35
2022-12-20T10:49:35.529Z,19.55
2022-12-20T10:52:09.491Z,19.10
2022-12-20T10:54:40.123Z,18.15
2022-12-20T10:57:17.149Z,19.27
2022-12-20T11:00:01.744Z,19.75
2022-12-20T11:02:41.512Z,18.83
2022-12-20T11:05:10.884Z,18.15
2022-12-20T11:08:24.703Z,19.77
2022-12-20T11:10:40.066Z,19.27
2022-12-20T11:13:19.752Z,19.52
2022-12-20T11:15:54.958Z,18.98
2022-12-20T11:18:37.109Z,19.00
2022-12-20T11:21:28.081Z,20.10
2022-12-20T11:24:33.028Z,20.75
2022-12-20T11:27:37.786Z,20.08
2022-12-20T11:30:24.699Z,21.08
2022-12-20T11:33:30.513Z,21.73
2022-12-20T11:36:11.206Z,21.15
2022-12-20T11:38:45.738Z,21.38
2022-12-20T11:41:39.173Z,21.15
2022-12-20T11:44:26.643Z,21.02
2022-12-20T11:47:27.016Z,21.08
2022-12-20T11:50:35.747Z,22.52
2022-12-20T11:53:12.413Z,20.20
2022-12-20T11:55:46.325Z,21.65
2022-12-20T11:58:19.063Z,20.70
2022-12-20T12:00:53.393Z,19.58
2022-12-20T12:03:28.780Z,19.90
2022-12-20T12:06:32.127Z,21.13
2022-12-20T12:09:24.527Z,20.25
2022-12-20T12:12:09.686Z,20.23
2022-12-20T12:14:46.420Z,20.48
2022-12-20T12:17:22.158Z,21.42
2022-12-20T12:19:51.388Z,20.80
2022-12-20T12:22:28.745Z,20.52
2022-12-20T12:25:00.281Z,19.80
2022-12-20T12:27:28.792Z,20.23
2022-12-20T12:29:58.893Z,20.38
2022-12-20T12:35:33.054Z,19.80
2022-12-20T12:38:18.783Z,20.90
2022-12-20T12:40:55.031Z,19.60
2022-12-20T12:44:15.938Z,21.58
2022-12-20T12:46:43.873Z,20.88
2022-12-20T12:49:18.903Z,20.52
2022-12-20T12:51:59.910Z,21.80
2022-12-20T12:54:31.102Z,20.50
2022-12-20T12:57:12.939Z,21.27
2022-12-20T12:59:41.966Z,22.67
2022-12-20T13:02:15.826Z,21.05
2022-12-20T13:05:01.495Z,21.40
2022-12-20T13:07:35.520Z,21.27
2022-12-20T13:10:25.693Z,20.55
2022-12-20T13:12:53.025Z,22.17
2022-12-20T13:15:20.528Z,22.15
2022-12-20T13:18:23.084Z,21.55
2022-12-20T13:21:28.679Z,21.08
2022-12-20T13:24:50.992Z,20.70
2022-12-20T13:27:40.630Z,20.38
2022-12-20T13:30:07.956Z,22.67
2022-12-20T13:33:17.810Z,22.20
2022-12-20T13:35:55.762Z,22.80
2022-12-20T13:38:57.151Z,23.17
2022-12-20T13:41:45.808Z,23.60
2022-12-20T13:44:15.990Z,23.55
2022-12-20T13:49:27.124Z,21.67
2022-12-20T13:52:12.379Z,21.98
2022-12-20T13:54:49.105Z,23.15
2022-12-20T13:57:44.085Z,21.83
2022-12-20T14:00:23.217Z,24.33
2022-12-20T14:02:50.914Z,22.88
2022-12-20T14:05:27.203Z,21.52
2022-12-20T14:08:04.193Z,22.42
2022-12-20T14:10:33.927Z,23.60
2022-12-20T14:13:01.952Z,22.63
2022-12-20T14:15:35.031Z,23.58
2022-12-20T14:18:18.195Z,24.40
2022-12-20T14:20:51.671Z,24.02
2022-12-20T14:23:22.971Z,22.60
2022-12-20T14:25:58.715Z,23.15
2022-12-20T14:28:50.392Z,23.38
2022-12-20T14:31:23.507Z,23.70
2022-12-20T14:33:52.223Z,23.27
2022-12-20T14:36:21.631Z,23.42
2022-12-20T14:38:52.926Z,24.13
2022-12-20T14:41:46.446Z,23.30
2022-12-20T14:44:18.206Z,23.95
2022-12-20T14:46:57.364Z,22.95
2022-12-20T14:49:48.736Z,23.90
2022-12-20T14:52:16.224Z,23.33
2022-12-20T14:55:08.822Z,24.05
2022-12-20T14:57:37.114Z,23.65
2022-12-20T15:00:19.281Z,23.60
2022-12-20T15:02:56.445Z,23.65
2022-12-20T15:05:36.209Z,23.63
2022-12-20T15:08:27.565Z,21.15
2022-12-20T15:11:03.920Z,24.75
2022-12-20T15:13:34.846Z,23.95
2022-12-20T15:16:14.157Z,25.58
2022-12-20T15:18:41.785Z,22.88
2022-12-20T15:21:30.399Z,24.60
2022-12-20T15:24:00.497Z,25.30
2022-12-20T15:26:29.207Z,23.45
2022-12-20T15:28:56.681Z,26.50
2022-12-20T15:31:32.458Z,25.48
2022-12-20T15:34:02.694Z,24.90
2022-12-20T15:36:30.637Z,25.67
2022-12-20T15:39:15.231Z,24.90
2022-12-20T15:41:47.601Z,23.50
2022-12-20T15:44:26.022Z,24.75
2022-12-20T15:46:53.761Z,22.67
2022-12-20T15:49:23.910Z,23.80
2022-12-20T15:51:53.492Z,23.55
2022-12-20T15:54:30.659Z,23.58
2022-12-20T15:57:03.249Z,24.00
2022-12-20T16:02:25.263Z,23.50
2022-12-20T16:04:54.221Z,24.08
2022-12-20T16:07:22.592Z,24.45
2022-12-20T16:09:50.127Z,22.63
2022-12-20T16:12:23.041Z,23.33
2022-12-20T16:14:50.453Z,24.40
2022-12-20T16:17:17.882Z,26.27
2022-12-20T16:19:45.200Z,24.00
2022-12-20T16:22:22.614Z,23.20
2022-12-20T16:24:50.188Z,23.17
2022-12-20T16:27:17.675Z,22.88
2022-12-20T16:29:45.752Z,23.48
2022-12-20T16:32:18.519Z,23.38
2022-12-20T16:34:46.388Z,23.90
2022-12-20T16:37:14.273Z,25.00
2022-12-20T16:39:42.642Z,23.42
2022-12-20T16:42:23.232Z,23.90
2022-12-20T16:44:54.490Z,22.08
2022-12-20T16:47:22.463Z,22.10
2022-12-20T16:49:53.344Z,22.35
2022-12-20T16:52:23.039Z,21.60
2022-12-20T16:54:51.646Z,21.63
2022-12-20T16:57:19.485Z,22.27
2022-12-20T16:59:46.912Z,21.20
2022-12-20T17:02:29.419Z,21.13
2022-12-20T17:04:57.613Z,21.27
2022-12-20T17:07:25.393Z,21.80
2022-12-20T17:10:11.551Z,21.40
2022-12-20T17:12:39.110Z,21.27
2022-12-20T17:15:07.173Z,22.75
2022-12-20T17:17:34.682Z,22.15
2022-12-20T17:20:01.965Z,23.23
2022-12-20T17:22:29.542Z,21.73
2022-12-20T17:24:57.280Z,23.58
2022-12-20T17:27:25.159Z,23.88
2022-12-20T17:29:52.474Z,24.02
2022-12-20T17:32:25.852Z,24.55
2022-12-20T17:34:53.872Z,24.88
2022-12-20T17:37:21.765Z,23.77
2022-12-20T17:39:49.491Z,25.00
2022-12-20T17:42:17.272Z,23.63
2022-12-20T17:44:46.555Z,24.02
2022-12-20T17:47:14.190Z,24.58
2022-12-20T17:49:41.474Z,22.95
2022-12-20T17:52:15.984Z,23.13
2022-12-20T17:54:43.809Z,24.30
2022-12-20T17:57:17.449Z,24.55
2022-12-20T17:59:44.899Z,23.50
2022-12-20T18:02:30.556Z,23.15
2022-12-20T18:04:58.133Z,24.45
2022-12-20T18:07:25.697Z,25.30
2022-12-20T18:09:53.057Z,24.17
2022-12-20T18:12:20.668Z,24.80
2022-12-20T18:14:51.649Z,24.80
2022-12-20T18:17:19.122Z,24.77
2022-12-20T18:19:46.495Z,24.08
2022-12-20T18:22:15.008Z,25.35
2022-12-20T18:24:42.405Z,25.15
2022-12-20T18:27:10.235Z,26.65
2022-12-20T18:29:37.509Z,25.40
2022-12-20T18:32:05.209Z,25.83
2022-12-20T18:34:32.678Z,26.25
2022-12-20T18:37:02.136Z,25.95
2022-12-20T18:39:29.577Z,24.77
2022-12-20T18:41:56.945Z,26.38
2022-12-20T18:44:24.689Z,26.10
2022-12-20T18:46:52.042Z,27.30
2022-12-20T18:49:19.599Z,26.50
2022-12-20T18:51:47.164Z,27.02
2022-12-20T18:54:15.157Z,26.17
2022-12-20T18:56:43.033Z,26.98
2022-12-20T18:59:12.681Z,27.63
2022-12-20T19:01:42.314Z,26.58
2022-12-20T19:04:22.516Z,27.83
2022-12-20T19:06:53.279Z,26.25
2022-12-20T19:09:20.689Z,25.63
2022-12-20T19:11:53.084Z,26.63
2022-12-20T19:14:23.840Z,23.52
2022-12-20T19:16:52.149Z,24.30
2022-12-20T19:19:20.811Z,27.08
2022-12-20T19:21:48.142Z,23.13
2022-12-20T19:24:15.564Z,25.10
2022-12-20T19:26:42.784Z,25.20
2022-12-20T19:29:11.750Z,25.88
2022-12-20T19:31:39.147Z,24.73
2022-12-20T19:34:11.223Z,23.75
2022-12-20T19:36:41.658Z,24.38
2022-12-20T19:39:16.530Z,23.23
2022-12-20T19:41:59.895Z,24.63
2022-12-20T19:44:33.875Z,23.83
2022-12-20T19:47:07.498Z,24.77
2022-12-20T19:49:36.467Z,23.23
2022-12-20T19:52:04.432Z,24.25
2022-12-20T19:54:31.946Z,24.05
2022-12-20T19:56:59.362Z,24.92
2022-12-20T19:59:26.834Z,23.67
2022-12-20T20:01:54.217Z,24.63
2022-12-20T20:04:21.793Z,24.38
2022-12-20T20:06:49.091Z,23.98
2022-12-20T20:09:16.553Z,24.98
2022-12-20T20:11:43.948Z,24.00
2022-12-20T20:14:11.410Z,24.38
2022-12-20T20:16:38.904Z,24.35
2022-12-20T20:19:06.434Z,23.58
2022-12-20T20:21:36.646Z,23.65
2022-12-20T20:26:32.073Z,25.70
2022-12-20T20:29:01.299Z,24.50
2022-12-20T20:31:29.164Z,25.67
2022-12-20T20:33:58.514Z,23.50
2022-12-20T20:36:25.915Z,23.02
2022-12-20T20:38:53.123Z,25.08
2022-12-20T20:41:20.990Z,24.33
2022-12-20T20:43:49.724Z,23.88
2022-12-20T20:46:18.127Z,25.63
2022-12-20T20:48:46.340Z,25.05
2022-12-20T20:51:14.296Z,25.17
2022-12-20T20:53:42.032Z,26.08
2022-12-20T20:56:10.287Z,26.95
2022-12-20T20:58:38.252Z,25.23
2022-12-20T21:01:11.139Z,27.08
2022-12-20T21:03:38.990Z,25.98
2022-12-20T21:06:39.297Z,25.25
2022-12-20T21:08:54.871Z,25.15
2022-12-20T21:11:22.764Z,24.92
2022-12-20T21:13:50.506Z,25.90
2022-12-20T21:16:22.694Z,24.30
2022-12-20T21:18:54.920Z,26.23
2022-12-20T21:21:23.084Z,26.55
2022-12-20T21:23:51.364Z,24.42
2022-12-20T21:26:20.777Z,24.50
2022-12-20T21:28:48.642Z,25.63
2022-12-20T21:31:19.631Z,25.17
2022-12-20T21:33:47.190Z,24.13
2022-12-20T21:36:17.321Z,25.25
2022-12-20T21:38:50.547Z,23.75
2022-12-20T21:41:19.318Z,24.50
2022-12-20T21:43:46.762Z,24.80
2022-12-20T21:46:15.046Z,24.58
2022-12-20T21:48:44.610Z,25.10
2022-12-20T21:51:14.785Z,23.88
2022-12-20T21:56:10.746Z,23.88
2022-12-20T21:58:38.167Z,24.13
2022-12-20T22:01:08.193Z,25.58
2022-12-20T22:06:04.583Z,23.98
2022-12-20T22:08:33.782Z,23.33
2022-12-20T22:11:10.931Z,22.47
2022-12-20T22:13:42.039Z,24.23
2022-12-20T22:16:11.198Z,26.00
2022-12-20T22:18:39.938Z,24.13
2022-12-20T22:21:12.948Z,24.80
2022-12-20T22:23:40.981Z,23.95
2022-12-20T22:26:11.276Z,23.73
2022-12-20T22:28:40.203Z,24.55
2022-12-20T22:31:09.796Z,23.90
2022-12-20T22:33:38.440Z,22.83
2022-12-20T22:36:07.470Z,23.83
2022-12-20T22:38:34.985Z,24.05
2022-12-20T22:41:11.561Z,23.42
2022-12-20T22:43:41.234Z,24.15
2022-12-20T22:46:30.936Z,24.45
2022-12-20T22:48:59.534Z,23.13
2022-12-20T22:51:27.982Z,23.13
2022-12-20T22:53:57.911Z,24.23
2022-12-20T22:56:25.747Z,21.83
2022-12-20T22:58:52.976Z,22.33
2022-12-20T23:01:21.210Z,22.40
2022-12-20T23:03:49.153Z,23.05
2022-12-20T23:06:19.660Z,22.80
2022-12-20T23:08:47.981Z,24.58
2022-12-20T23:11:38.510Z,22.30
2022-12-20T23:14:24.624Z,23.48
2022-12-20T23:16:52.147Z,23.52
2022-12-20T23:19:19.738Z,21.85
2022-12-20T23:22:07.247Z,23.60
2022-12-20T23:24:34.658Z,22.40
2022-12-20T23:27:02.583Z,23.10
2022-12-20T23:29:30.660Z,24.30
2022-12-20T23:31:58.065Z,22.63
2022-12-20T23:34:25.437Z,23.15
2022-12-20T23:36:52.754Z,24.10
2022-12-20T23:39:19.993Z,21.50
2022-12-20T23:41:47.635Z,23.65
2022-12-20T23:44:15.405Z,22.73
2022-12-20T23:46:42.685Z,23.95
2022-12-20T23:49:10.031Z,22.52
2022-12-20T23:51:37.390Z,23.00
2022-12-20T23:54:04.806Z,23.38
2022-12-20T23:56:31.928Z,22.23
2022-12-20T23:59:03.719Z,22.90
